Time;durP1;ratioP1;P1;durP2;ratioP2;P2;SDS_P1;SDS_P2;PMS_P1;PMS_P2;Temp;Humidity;BMP_temperature;BMP_pressure;BME280_temperature;BME280_humidity;BME280_pressure;Samples;Min_cycle;Max_cycle;Signal;HPM_P1;HPM_P2
2021/11/09 00:02:11;;;;;;;30.60;13.43;;;8.10;99.90;;;;;;4958718;29;20305;-68
2021/11/09 00:04:42;;;;;;;31.58;12.60;;;8.10;99.90;;;;;;4958797;28;20097;-68
2021/11/09 00:07:23;;;;;;;37.33;12.77;;;8.10;99.90;;;;;;4958106;29;20110;-68
2021/11/09 00:09:57;;;;;;;29.40;12.07;;;8.10;99.90;;;;;;4958201;28;20026;-68
2021/11/09 00:12:34;;;;;;;29.00;11.90;;;8.10;99.90;;;;;;4959813;28;20046;-68
2021/11/09 00:15:04;;;;;;;33.03;12.23;;;8.10;99.90;;;;;;4962145;29;20094;-68
2021/11/09 00:17:32;;;;;;;34.63;13.23;;;8.10;99.90;;;;;;4961717;28;20030;-68
2021/11/09 00:20:00;;;;;;;30.73;13.07;;;8.10;99.90;;;;;;4961328;28;20051;-68
2021/11/09 00:22:27;;;;;;;29.08;12.32;;;8.10;99.90;;;;;;4961315;29;20324;-68
2021/11/09 00:24:55;;;;;;;30.15;13.35;;;8.10;99.90;;;;;;4961214;29;20435;-68
2021/11/09 00:27:22;;;;;;;30.98;14.20;;;8.10;99.90;;;;;;4961211;29;20054;-68
2021/11/09 00:29:50;;;;;;;38.15;13.70;;;8.10;99.90;;;;;;4962604;29;20020;-68
2021/11/09 00:32:17;;;;;;;35.25;15.05;;;8.10;99.90;;;;;;4962281;29;20098;-68
2021/11/09 00:34:45;;;;;;;29.55;12.82;;;8.10;99.90;;;;;;4961973;28;20050;-67
2021/11/09 00:37:14;;;;;;;28.90;12.88;;;8.10;99.90;;;;;;4960984;29;20023;-68
2021/11/09 00:39:42;;;;;;;32.95;13.32;;;8.10;99.90;;;;;;4962069;29;20023;-68
2021/11/09 00:42:11;;;;;;;29.55;13.63;;;8.00;99.90;;;;;;4961887;29;20027;-68
2021/11/09 00:44:38;;;;;;;28.08;12.93;;;8.00;99.90;;;;;;4965385;28;20439;-68
2021/11/09 00:47:07;;;;;;;23.55;12.85;;;8.00;99.90;;;;;;4981572;28;20027;-68
2021/11/09 00:49:35;;;;;;;28.02;12.95;;;8.00;99.90;;;;;;4980837;28;20289;-68
2021/11/09 00:52:04;;;;;;;31.77;12.18;;;8.00;99.90;;;;;;4962944;28;20026;-68
2021/11/09 00:54:34;;;;;;;31.13;13.13;;;8.00;99.90;;;;;;4980057;28;20027;-68
2021/11/09 00:57:02;;;;;;;29.90;13.13;;;8.00;99.90;;;;;;4980239;28;20121;-68
2021/11/09 00:59:29;;;;;;;31.17;11.98;;;8.00;99.90;;;;;;4980004;28;20019;-68
2021/11/09 01:01:57;;;;;;;27.77;12.27;;;7.90;99.90;;;;;;4980440;28;20058;-68
2021/11/09 01:04:26;;;;;;;28.85;11.82;;;7.90;99.90;;;;;;4980424;28;20022;-68
2021/11/09 01:06:55;;;;;;;25.38;12.00;;;7.90;99.90;;;;;;4979692;28;20336;-68
2021/11/09 01:09:23;;;;;;;37.35;13.48;;;8.00;99.90;;;;;;4979722;28;20327;-68
2021/11/09 01:11:52;;;;;;;21.63;11.32;;;8.00;99.90;;;;;;4980148;28;20427;-68
2021/11/09 01:14:23;;;;;;;30.38;12.25;;;7.90;99.90;;;;;;4963772;28;20439;-68
2021/11/09 01:16:51;;;;;;;31.20;12.45;;;7.90;99.90;;;;;;4980584;28;20368;-68
2021/11/09 01:19:19;;;;;;;26.65;12.10;;;7.90;99.90;;;;;;4980375;28;20438;-68
2021/11/09 01:21:47;;;;;;;29.98;11.73;;;7.90;99.90;;;;;;4980443;28;20030;-68
2021/11/09 01:24:16;;;;;;;21.73;12.48;;;7.90;99.90;;;;;;4979689;28;20454;-68
2021/11/09 01:26:45;;;;;;;21.88;10.55;;;7.90;99.90;;;;;;4980312;28;20031;-68
2021/11/09 01:29:14;;;;;;;27.70;10.85;;;7.90;99.90;;;;;;4980233;28;20030;-68
2021/11/09 01:31:42;;;;;;;29.90;10.98;;;7.90;99.90;;;;;;4980012;28;20070;-68
2021/11/09 01:34:11;;;;;;;26.27;11.48;;;7.90;99.90;;;;;;4979900;28;20023;-68
2021/11/09 01:36:38;;;;;;;31.00;12.00;;;7.90;99.90;;;;;;4979814;28;20027;-68
2021/11/09 01:39:07;;;;;;;31.42;11.50;;;7.90;99.90;;;;;;4979376;28;20034;-68
2021/11/09 01:41:35;;;;;;;32.55;12.60;;;7.90;99.90;;;;;;4979159;28;20033;-68
2021/11/09 01:44:04;;;;;;;25.95;11.23;;;7.90;99.90;;;;;;4979498;28;20042;-68
2021/11/09 01:46:32;;;;;;;21.10;10.27;;;7.90;99.90;;;;;;4978822;28;20096;-68
2021/11/09 01:49:00;;;;;;;25.88;11.25;;;7.90;99.90;;;;;;4961832;28;20050;-68
2021/11/09 01:51:27;;;;;;;30.48;11.50;;;7.90;99.90;;;;;;4961792;28;20043;-68
2021/11/09 01:53:56;;;;;;;31.55;12.32;;;7.90;99.90;;;;;;4979098;28;20411;-67
2021/11/09 01:56:27;;;;;;;29.63;11.43;;;7.90;99.90;;;;;;4979702;28;20443;-67
2021/11/09 01:58:56;;;;;;;28.38;11.25;;;7.90;99.90;;;;;;4980235;28;20030;-68
2021/11/09 02:01:25;;;;;;;27.15;12.18;;;7.90;99.90;;;;;;4962490;28;20165;-68
2021/11/09 02:03:57;;;;;;;25.65;11.70;;;7.90;99.90;;;;;;4979465;28;20034;-68
2021/11/09 02:06:25;;;;;;;22.33;11.80;;;7.90;99.90;;;;;;4979624;28;20021;-68
2021/11/09 02:09:01;;;;;;;33.15;11.75;;;7.90;99.90;;;;;;4979626;28;20019;-68
2021/11/09 02:11:29;;;;;;;23.58;11.07;;;7.80;99.90;;;;;;4979507;28;20093;-68
2021/11/09 02:13:56;;;;;;;23.05;10.95;;;7.90;99.90;;;;;;4979314;28;20026;-68
2021/11/09 02:16:24;;;;;;;25.90;11.02;;;7.80;99.90;;;;;;4979030;28;20050;-68
2021/11/09 02:18:52;;;;;;;31.10;12.57;;;7.80;99.90;;;;;;4978528;28;20113;-68
2021/11/09 02:21:20;;;;;;;30.85;12.65;;;7.80;99.90;;;;;;4978428;28;20054;-68
2021/11/09 02:23:48;;;;;;;32.92;11.55;;;7.70;99.90;;;;;;4978402;28;20019;-67
2021/11/09 02:26:20;;;;;;;24.70;11.75;;;7.60;99.90;;;;;;4978246;28;20089;-67
2021/11/09 02:28:56;;;;;;;31.17;11.35;;;7.60;99.90;;;;;;4978782;28;20098;-68
2021/11/09 02:31:24;;;;;;;25.40;11.40;;;7.50;99.90;;;;;;4978273;28;20019;-68
2021/11/09 02:33:51;;;;;;;29.02;11.75;;;7.40;99.90;;;;;;4978394;28;20077;-67
2021/11/09 02:36:19;;;;;;;27.88;11.25;;;7.30;99.90;;;;;;4945168;28;20030;-68
2021/11/09 02:38:48;;;;;;;27.95;12.18;;;7.20;99.90;;;;;;4979717;28;20022;-68
2021/11/09 02:41:16;;;;;;;28.70;12.68;;;7.10;99.90;;;;;;4978915;28;20035;-68
2021/11/09 02:43:44;;;;;;;32.58;11.98;;;7.00;99.90;;;;;;4979454;28;20030;-68
2021/11/09 02:46:32;;;;;;;28.80;11.95;;;7.00;99.90;;;;;;4978691;28;20137;-68
2021/11/09 02:49:10;;;;;;;28.73;12.27;;;6.90;99.90;;;;;;4979234;28;20399;-68
2021/11/09 02:51:52;;;;;;;37.10;14.30;;;6.90;99.90;;;;;;4979444;28;20101;-68
2021/11/09 03:01:59;;;;;;;25.75;11.73;;;6.80;99.90;;;;;;4977856;28;20027;-68
2021/11/09 03:04:37;;;;;;;27.80;11.20;;;6.70;99.90;;;;;;4977911;28;20038;-68
2021/11/09 03:07:09;;;;;;;23.02;11.00;;;6.70;99.90;;;;;;4977576;28;20328;-67
2021/11/09 03:10:13;;;;;;;28.40;11.90;;;6.60;99.90;;;;;;4977909;28;20019;-68
2021/11/09 03:12:35;;;;;;;;;;;6.60;99.90;;;;;;4976697;28;20375;-68
2021/11/09 03:15:06;;;;;;;26.83;10.88;;;6.60;99.90;;;;;;4977578;28;19910;-68
2021/11/09 03:17:40;;;;;;;31.15;11.93;;;6.60;99.90;;;;;;4960434;28;20343;-68
2021/11/09 03:20:16;;;;;;;24.10;12.33;;;6.60;99.90;;;;;;4978320;28;20038;-68
2021/11/09 03:45:04;;;;;;;35.22;14.50;;;6.70;99.90;;;;;;4977488;28;20049;-68
2021/11/09 03:47:36;;;;;;;39.42;15.57;;;6.70;99.90;;;;;;4980203;28;20046;-69
2021/11/09 03:50:07;;;;;;;37.17;14.85;;;6.70;99.90;;;;;;4981263;28;20411;-68
2021/11/09 03:52:46;;;;;;;32.45;13.90;;;6.70;99.90;;;;;;4981678;28;20114;-68
2021/11/09 03:55:21;;;;;;;43.25;14.40;;;6.70;99.90;;;;;;4981210;28;20026;-68
2021/11/09 03:58:01;;;;;;;39.30;15.30;;;6.80;99.90;;;;;;4981615;28;20030;-68
2021/11/09 04:00:34;;;;;;;31.90;13.73;;;6.70;99.90;;;;;;4981051;28;20026;-68
2021/11/09 04:05:40;;;;;;;33.58;12.70;;;6.80;99.90;;;;;;4982089;28;20034;-68
2021/11/09 04:08:17;;;;;;;36.53;13.48;;;6.80;99.90;;;;;;4982639;28;20019;-68
2021/11/09 04:10:58;;;;;;;36.03;13.88;;;6.80;99.90;;;;;;4981781;28;20019;-68
2021/11/09 04:13:33;;;;;;;40.47;15.85;;;6.80;99.90;;;;;;4982469;28;20042;-68
2021/11/09 04:21:19;;;;;;;34.20;12.73;;;6.90;99.90;;;;;;4981557;28;20027;-68
2021/11/09 04:26:37;;;;;;;35.40;15.30;;;6.90;99.90;;;;;;4980521;28;20050;-68
2021/11/09 04:29:23;;;;;;;40.45;14.85;;;6.90;99.90;;;;;;4980256;28;20085;-68
2021/11/09 04:32:11;;;;;;;42.40;16.27;;;6.90;99.90;;;;;;4980491;28;20015;-68
2021/11/09 05:12:19;;;;;;;46.20;16.45;;;7.10;99.90;;;;;;4979729;28;20391;-68
2021/11/09 05:14:47;;;;;;;46.00;16.55;;;7.10;99.90;;;;;;4979773;28;20034;-68
2021/11/09 05:17:14;;;;;;;50.72;18.33;;;7.10;99.90;;;;;;4980181;28;20019;-68
2021/11/09 05:19:42;;;;;;;55.17;17.85;;;7.10;99.90;;;;;;4962552;28;20031;-68
2021/11/09 05:22:09;;;;;;;47.92;18.95;;;7.10;99.90;;;;;;4962369;28;20034;-68
2021/11/09 05:24:42;;;;;;;46.58;17.30;;;7.10;99.90;;;;;;4979526;28;20023;-68
2021/11/09 05:27:11;;;;;;;45.78;17.63;;;7.20;99.90;;;;;;4979335;28;20078;-68
2021/11/09 05:29:39;;;;;;;49.92;18.67;;;7.20;99.90;;;;;;4980501;28;20053;-68
2021/11/09 05:32:07;;;;;;;41.92;15.60;;;7.20;99.90;;;;;;4980192;28;20022;-68
2021/11/09 05:34:35;;;;;;;42.25;16.83;;;7.20;99.90;;;;;;4980250;28;20034;-68
2021/11/09 05:37:04;;;;;;;40.83;16.45;;;7.20;99.90;;;;;;4980712;28;20407;-68
2021/11/09 05:39:35;;;;;;;46.38;16.65;;;7.20;99.90;;;;;;4980856;28;20404;-68
2021/11/09 05:42:03;;;;;;;40.47;14.38;;;7.20;99.90;;;;;;4980861;28;20033;-68
2021/11/09 05:44:31;;;;;;;41.85;15.25;;;7.10;99.90;;;;;;4979851;28;20035;-68
2021/11/09 05:46:59;;;;;;;47.03;15.50;;;7.10;99.90;;;;;;4980037;28;20165;-68
2021/11/09 05:49:27;;;;;;;35.55;15.75;;;7.10;99.90;;;;;;4979009;28;20018;-68
2021/11/09 05:51:55;;;;;;;41.85;15.13;;;7.10;99.90;;;;;;4979016;28;20019;-68
2021/11/09 05:54:22;;;;;;;39.97;14.50;;;7.10;99.90;;;;;;4961790;28;20382;-68
2021/11/09 05:56:50;;;;;;;33.40;14.07;;;7.00;99.90;;;;;;4978979;28;20074;-68
2021/11/09 05:59:17;;;;;;;41.60;14.13;;;7.00;99.90;;;;;;4961731;28;20077;-68
2021/11/09 06:01:45;;;;;;;36.65;14.70;;;6.90;99.90;;;;;;4979372;28;20027;-68
2021/11/09 06:04:12;;;;;;;44.47;16.33;;;6.90;99.90;;;;;;4979333;28;20034;-68
2021/11/09 06:06:40;;;;;;;58.00;20.10;;;6.80;99.90;;;;;;4978960;28;20027;-68
2021/11/09 06:09:08;;;;;;;50.65;17.65;;;6.70;99.90;;;;;;4978961;28;20479;-68
2021/11/09 06:11:35;;;;;;;50.42;16.80;;;6.70;99.90;;;;;;4979884;28;20023;-68
2021/11/09 06:14:03;;;;;;;47.60;16.10;;;6.70;99.90;;;;;;4962510;28;20030;-68
2021/11/09 06:16:31;;;;;;;45.90;15.52;;;6.70;99.90;;;;;;4962550;28;20034;-68
2021/11/09 06:18:58;;;;;;;40.97;15.38;;;6.60;99.90;;;;;;4979932;28;20035;-68
2021/11/09 06:21:26;;;;;;;43.10;14.43;;;6.60;99.90;;;;;;4979846;28;20022;-68
2021/11/09 06:23:53;;;;;;;43.97;16.00;;;6.60;99.90;;;;;;4979248;28;20026;-68
2021/11/09 06:26:22;;;;;;;42.42;16.52;;;6.60;99.90;;;;;;4979134;28;20102;-68
2021/11/09 06:28:55;;;;;;;38.30;15.25;;;6.60;99.90;;;;;;4946381;28;20041;-68
2021/11/09 06:31:28;;;;;;;39.20;13.80;;;6.50;99.90;;;;;;4978258;28;20027;-69
2021/11/09 06:33:56;;;;;;;31.15;12.85;;;6.40;99.90;;;;;;4978159;28;20027;-69
2021/11/09 06:36:24;;;;;;;37.28;14.80;;;6.40;99.90;;;;;;4978137;28;20065;-68
2021/11/09 06:38:52;;;;;;;37.05;13.02;;;6.30;99.90;;;;;;4978771;28;20026;-68
2021/11/09 06:41:21;;;;;;;37.55;13.38;;;6.20;99.90;;;;;;4978531;28;20023;-68
2021/11/09 06:43:48;;;;;;;35.70;13.95;;;6.10;99.90;;;;;;4978013;28;20034;-68
2021/11/09 06:46:16;;;;;;;38.28;15.32;;;6.00;99.90;;;;;;4977800;28;20053;-68
2021/11/09 06:48:47;;;;;;;49.35;17.20;;;5.90;99.90;;;;;;4978040;28;20106;-68
2021/11/09 06:51:15;;;;;;;37.90;14.73;;;5.90;99.90;;;;;;4977632;28;20359;-68
2021/11/09 06:53:43;;;;;;;36.15;13.18;;;5.80;99.90;;;;;;4978199;28;20023;-69
2021/11/09 06:56:10;;;;;;;31.27;13.52;;;5.80;99.90;;;;;;4979059;28;20023;-69
2021/11/09 06:58:37;;;;;;;36.88;13.70;;;5.70;99.90;;;;;;4978744;28;20026;-71
2021/11/09 07:01:06;;;;;;;42.63;13.98;;;5.70;99.90;;;;;;4978467;28;20027;-72
2021/11/09 07:03:34;;;;;;;53.55;14.00;;;5.60;99.90;;;;;;4979065;28;20025;-72
2021/11/09 07:06:06;;;;;;;47.30;13.13;;;5.60;99.90;;;;;;4979177;28;20110;-72
2021/11/09 07:08:34;;;;;;;33.25;13.07;;;5.50;99.90;;;;;;4978964;28;20408;-72
2021/11/09 07:11:05;;;;;;;34.05;12.43;;;5.50;99.90;;;;;;4961420;28;20033;-72
2021/11/09 07:13:34;;;;;;;36.15;14.45;;;5.40;99.90;;;;;;4978324;28;20022;-72
2021/11/09 07:16:03;;;;;;;32.15;12.30;;;5.40;99.90;;;;;;4977630;28;20027;-72
2021/11/09 07:18:31;;;;;;;41.80;12.63;;;5.30;99.90;;;;;;4977683;28;20026;-71
2021/11/09 07:20:59;;;;;;;27.75;11.20;;;5.30;99.90;;;;;;4977156;28;20030;-72
2021/11/09 07:23:27;;;;;;;22.98;10.98;;;5.20;99.90;;;;;;4977438;28;20061;-72
2021/11/09 07:25:55;;;;;;;25.67;11.65;;;5.20;99.90;;;;;;4977505;28;20030;-72
2021/11/09 07:28:23;;;;;;;29.40;11.82;;;5.10;99.90;;;;;;4977662;28;20026;-73
2021/11/09 07:31:02;;;;;;;31.10;12.18;;;5.10;99.90;;;;;;4977848;28;20022;-71
2021/11/09 07:33:32;;;;;;;24.67;11.10;;;5.10;99.90;;;;;;4977369;28;20027;-68
2021/11/09 07:35:59;;;;;;;23.23;10.85;;;5.10;99.90;;;;;;4977301;28;20066;-68
2021/11/09 07:38:27;;;;;;;27.67;12.15;;;5.10;99.90;;;;;;4978549;28;20034;-68
2021/11/09 07:40:54;;;;;;;58.53;16.65;;;5.10;99.90;;;;;;4978364;28;20419;-70
2021/11/09 07:43:23;;;;;;;40.28;15.88;;;5.10;99.90;;;;;;4978226;28;20026;-70
2021/11/09 07:45:50;;;;;;;42.28;14.02;;;5.20;99.90;;;;;;4978095;28;20055;-70
2021/11/09 07:48:18;;;;;;;41.67;14.60;;;5.20;99.90;;;;;;4978829;28;20022;-71
2021/11/09 07:50:45;;;;;;;41.42;16.05;;;5.30;99.90;;;;;;4978299;28;20050;-71
2021/11/09 07:53:18;;;;;;;45.15;15.85;;;5.30;99.90;;;;;;4978165;28;20023;-70
2021/11/09 07:55:57;;;;;;;38.40;14.25;;;5.30;99.90;;;;;;4978198;28;20047;-70
2021/11/09 07:58:33;;;;;;;40.60;16.83;;;5.30;99.90;;;;;;4977472;28;20054;-70
2021/11/09 08:01:08;;;;;;;44.97;14.95;;;5.40;99.90;;;;;;4977098;28;20026;-69
2021/11/09 08:03:45;;;;;;;33.85;12.98;;;5.40;99.90;;;;;;4976834;28;20434;-69
2021/11/09 08:06:18;;;;;;;38.67;13.85;;;5.40;99.90;;;;;;4977285;28;20019;-69
2021/11/09 08:11:24;;;;;;;38.63;14.65;;;5.40;99.90;;;;;;4976983;28;20043;-69
2021/11/09 08:13:52;;;;;;;34.05;13.98;;;5.40;99.90;;;;;;4977022;28;20027;-69
2021/11/09 08:16:20;;;;;;;57.25;16.27;;;5.50;99.90;;;;;;4977506;28;20034;-68
2021/11/09 08:18:47;;;;;;;33.83;14.90;;;5.50;99.90;;;;;;4977590;28;20023;-68
2021/11/09 08:21:15;;;;;;;42.65;15.15;;;5.50;99.90;;;;;;4978063;28;20054;-69
2021/11/09 08:23:48;;;;;;;44.95;15.32;;;5.50;99.90;;;;;;4960562;28;20046;-69
2021/11/09 08:26:24;;;;;;;42.55;15.50;;;5.60;99.90;;;;;;4976759;28;20471;-68
2021/11/09 08:28:54;;;;;;;44.67;15.10;;;5.60;99.90;;;;;;4977963;28;20023;-68
2021/11/09 08:31:23;;;;;;;40.58;15.18;;;5.70;99.90;;;;;;4960941;28;20359;-68
2021/11/09 08:33:54;;;;;;;37.83;14.95;;;5.70;99.90;;;;;;4980209;28;20023;-68
2021/11/09 08:36:27;;;;;;;41.13;15.90;;;5.80;99.90;;;;;;4981490;28;20053;-68
2021/11/09 08:39:01;;;;;;;41.20;17.35;;;5.90;99.90;;;;;;4981697;28;20320;-68
2021/11/09 08:41:38;;;;;;;45.63;16.73;;;5.90;99.90;;;;;;4963274;28;20440;-68
2021/11/09 08:46:42;;;;;;;47.83;18.27;;;6.10;99.90;;;;;;4980048;28;20451;-68
2021/11/09 08:49:13;;;;;;;40.38;16.58;;;6.10;99.90;;;;;;4980171;28;20309;-68
2021/11/09 08:51:43;;;;;;;48.38;18.27;;;6.20;99.90;;;;;;4980484;28;20030;-68
2021/11/09 08:54:15;;;;;;;56.45;19.00;;;6.30;99.90;;;;;;4980153;28;20126;-68
2021/11/09 08:57:05;;;;;;;51.53;16.95;;;6.40;99.90;;;;;;4979939;28;20391;-68
2021/11/09 09:05:07;;;;;;;50.95;16.90;;;6.80;99.90;;;;;;4980749;28;19916;-68
2021/11/09 09:07:35;;;;;;;41.05;16.45;;;6.90;99.90;;;;;;4980796;28;20415;-68
2021/11/09 09:10:18;;;;;;;51.88;16.00;;;7.00;99.90;;;;;;4980925;28;20027;-67
2021/11/09 09:12:46;;;;;;;37.92;13.88;;;7.10;99.90;;;;;;4980659;28;20026;-68
2021/11/09 09:15:18;;;;;;;31.77;12.60;;;7.20;99.90;;;;;;4980646;28;20058;-68
2021/11/09 09:17:45;;;;;;;42.10;14.07;;;7.30;99.90;;;;;;4981087;28;20027;-68
2021/11/09 09:23:05;;;;;;;31.75;14.32;;;7.50;99.90;;;;;;4980288;28;20391;-68
2021/11/09 09:28:22;;;;;;;36.70;13.10;;;7.60;99.90;;;;;;4979655;28;20038;-68
2021/11/09 09:33:31;;;;;;;27.33;10.68;;;7.70;99.90;;;;;;4979721;28;20019;-68
2021/11/09 09:57:25;;;;;;;23.25;6.75;;;8.10;99.90;;;;;;4941446;29;20019;-68
2021/11/09 09:59:53;;;;;;;22.95;7.82;;;8.20;99.90;;;;;;4941552;29;20168;-69
2021/11/09 10:02:27;;;;;;;22.70;7.45;;;8.30;99.90;;;;;;4941348;29;20032;-68
2021/11/09 10:05:05;;;;;;;17.08;6.05;;;8.30;99.90;;;;;;4941137;29;20027;-68
2021/11/09 10:07:37;;;;;;;18.25;6.72;;;8.40;99.90;;;;;;4940328;29;20364;-68
2021/11/09 10:10:20;;;;;;;23.33;6.82;;;8.50;99.90;;;;;;4940996;29;20031;-68
2021/11/09 10:13:10;;;;;;;16.92;5.93;;;8.50;99.90;;;;;;4940248;29;20437;-68
2021/11/09 10:15:46;;;;;;;21.00;7.90;;;8.60;99.90;;;;;;4940688;29;20316;-68
2021/11/09 10:18:16;;;;;;;20.05;7.55;;;8.60;99.90;;;;;;4940189;29;20448;-68
2021/11/09 10:20:47;;;;;;;24.65;7.95;;;8.70;99.90;;;;;;4940578;29;20028;-68
2021/11/09 10:23:19;;;;;;;22.35;6.60;;;8.80;99.90;;;;;;4939943;29;20421;-68
2021/11/09 10:25:47;;;;;;;18.70;6.85;;;8.90;99.90;;;;;;4940502;29;20051;-68
2021/11/09 10:28:21;;;;;;;13.68;4.97;;;9.00;99.90;;;;;;4939641;29;20098;-68
2021/11/09 10:30:55;;;;;;;11.82;4.57;;;9.10;99.90;;;;;;4940754;29;20298;-68
2021/11/09 10:33:24;;;;;;;12.25;4.55;;;9.10;99.90;;;;;;4940713;29;20099;-68
2021/11/09 10:35:56;;;;;;;13.30;3.65;;;9.20;99.90;;;;;;4955629;29;20051;-68
2021/11/09 10:38:32;;;;;;;7.88;3.00;;;9.30;99.90;;;;;;4941891;29;20345;-68
2021/11/09 10:41:06;;;;;;;7.78;3.05;;;9.40;99.90;;;;;;4940656;29;20114;-68
2021/11/09 10:43:33;;;;;;;7.38;3.85;;;9.50;99.90;;;;;;4955414;29;20455;-68
2021/11/09 10:46:00;;;;;;;10.10;3.25;;;9.60;99.90;;;;;;4967857;28;20054;-68
2021/11/09 10:48:29;;;;;;;11.43;3.65;;;9.70;99.90;;;;;;4978484;28;20023;-68
2021/11/09 10:51:00;;;;;;;10.38;2.70;;;9.70;99.90;;;;;;4960841;28;20030;-68
2021/11/09 10:53:43;;;;;;;8.43;2.78;;;9.80;99.90;;;;;;4960861;28;20023;-69
2021/11/09 10:56:31;;;;;;;5.63;2.35;;;9.80;99.90;;;;;;4977036;28;20034;-68
2021/11/09 10:59:24;;;;;;;11.43;3.75;;;9.90;99.90;;;;;;4977934;28;20027;-68
2021/11/09 11:04:46;;;;;;;8.70;3.13;;;10.00;99.90;;;;;;4978032;28;20061;-68
2021/11/09 11:07:15;;;;;;;5.70;2.03;;;10.10;99.90;;;;;;4978317;28;20388;-68
2021/11/09 11:10:03;;;;;;;4.65;2.13;;;10.20;99.90;;;;;;4977912;28;20022;-72
2021/11/09 11:12:31;;;;;;;8.32;2.67;;;10.20;99.90;;;;;;4961372;28;20019;-67
2021/11/09 11:15:14;;;;;;;6.45;2.55;;;10.20;99.90;;;;;;4979191;28;20480;-68
2021/11/09 11:17:42;;;;;;;6.50;2.53;;;10.30;99.90;;;;;;4961422;28;20031;-72
2021/11/09 11:20:10;;;;;;;7.10;2.88;;;10.30;99.90;;;;;;4979076;28;20023;-67
2021/11/09 11:22:38;;;;;;;6.40;2.38;;;10.30;99.90;;;;;;4979156;28;20030;-67
2021/11/09 11:25:06;;;;;;;9.45;3.45;;;10.30;99.90;;;;;;4978478;28;20109;-68
2021/11/09 11:27:34;;;;;;;7.28;2.80;;;10.40;99.90;;;;;;4978791;28;20030;-68
2021/11/09 11:30:03;;;;;;;9.00;2.55;;;10.40;99.90;;;;;;4978356;28;20053;-68
2021/11/09 11:32:32;;;;;;;5.93;2.45;;;10.40;99.90;;;;;;4977875;28;20033;-68
2021/11/09 11:35:00;;;;;;;11.30;2.63;;;10.50;99.90;;;;;;4977530;28;20062;-68
2021/11/09 11:37:27;;;;;;;10.38;2.85;;;10.50;99.90;;;;;;4978110;28;20031;-68
2021/11/09 11:40:05;;;;;;;6.43;2.22;;;10.60;99.90;;;;;;4961126;28;20029;-68
2021/11/09 11:42:40;;;;;;;8.00;2.95;;;10.60;99.90;;;;;;4978018;28;20031;-68
2021/11/09 11:45:08;;;;;;;7.05;2.33;;;10.60;99.90;;;;;;4957122;29;20134;-68
2021/11/09 11:47:36;;;;;;;5.40;2.65;;;10.60;99.90;;;;;;4958456;28;20030;-69
2021/11/09 11:50:11;;;;;;;5.80;2.78;;;10.70;99.90;;;;;;4957054;28;20024;-68
2021/11/09 11:52:49;;;;;;;7.15;2.42;;;10.70;99.90;;;;;;4958604;28;20098;-68
2021/11/09 11:55:30;;;;;;;5.22;2.17;;;10.70;99.90;;;;;;4959618;28;20077;-68
2021/11/09 11:58:16;;;;;;;6.00;1.75;;;10.80;99.90;;;;;;4959046;29;20107;-68
2021/11/09 12:00:56;;;;;;;10.90;2.35;;;10.80;99.90;;;;;;4958968;28;20412;-68
2021/11/09 12:03:24;;;;;;;7.15;2.08;;;10.80;99.90;;;;;;4958930;28;20043;-68
2021/11/09 12:05:57;;;;;;;5.25;1.80;;;10.90;99.90;;;;;;4959480;28;20023;-68
2021/11/09 12:08:39;;;;;;;14.02;2.30;;;10.90;99.90;;;;;;4961430;28;20397;-68
2021/11/09 12:11:24;;;;;;;6.40;1.90;;;10.90;99.90;;;;;;4962580;28;20174;-68
2021/11/09 12:13:56;;;;;;;5.13;2.13;;;11.00;99.90;;;;;;4962500;28;20023;-68
2021/11/09 12:16:43;;;;;;;5.97;1.55;;;11.00;99.90;;;;;;4961527;28;20027;-68
2021/11/09 12:19:38;;;;;;;7.65;1.80;;;11.10;99.90;;;;;;4960418;28;20031;-68
2021/11/09 12:22:07;;;;;;;4.68;1.85;;;11.10;99.90;;;;;;4961266;29;20377;-67
2021/11/09 12:24:58;;;;;;;11.35;2.10;;;11.10;99.90;;;;;;4960238;29;20055;-74
2021/11/09 12:27:56;;;;;;;4.82;1.83;;;11.10;99.90;;;;;;4961560;29;20424;-68
2021/11/09 12:30:38;;;;;;;5.38;2.13;;;11.10;99.90;;;;;;4961116;29;20051;-68
2021/11/09 12:33:21;;;;;;;5.20;1.70;;;11.10;99.90;;;;;;4961739;28;20046;-68
2021/11/09 12:36:12;;;;;;;4.38;1.40;;;11.10;99.90;;;;;;4960508;29;20115;-68
2021/11/09 12:38:45;;;;;;;7.53;2.20;;;11.10;99.90;;;;;;4960832;29;20019;-68
2021/11/09 12:41:18;;;;;;;10.20;2.70;;;11.20;99.90;;;;;;4962263;28;20083;-69
2021/11/09 12:43:47;;;;;;;5.65;2.00;;;11.20;99.90;;;;;;4961892;28;20031;-69
2021/11/09 12:46:37;;;;;;;4.88;1.63;;;11.10;99.90;;;;;;4977229;28;20038;-68
2021/11/09 12:49:24;;;;;;;4.25;1.80;;;11.10;99.90;;;;;;4981466;28;20098;-68
2021/11/09 12:51:55;;;;;;;6.60;2.13;;;11.10;99.90;;;;;;4981397;28;20423;-68
2021/11/09 12:54:28;;;;;;;6.53;2.13;;;11.10;99.90;;;;;;4981070;28;20039;-68
2021/11/09 12:57:04;;;;;;;7.97;2.15;;;11.20;99.90;;;;;;4980651;28;20031;-68
2021/11/09 12:59:58;;;;;;;6.05;2.00;;;11.20;99.90;;;;;;4980135;28;20026;-69
2021/11/09 13:02:27;;;;;;;5.70;1.92;;;11.20;99.90;;;;;;4979658;28;20133;-67
2021/11/09 13:05:09;;;;;;;11.77;3.05;;;11.30;99.90;;;;;;4979911;28;20050;-67
2021/11/09 13:07:39;;;;;;;4.40;1.83;;;11.20;99.90;;;;;;4979842;28;20019;-67
2021/11/09 13:10:17;;;;;;;4.43;1.48;;;11.20;99.90;;;;;;4980433;28;20082;-67
2021/11/09 13:12:49;;;;;;;9.32;2.40;;;11.30;99.90;;;;;;4980629;28;20363;-67
2021/11/09 13:15:20;;;;;;;7.95;2.30;;;11.30;99.90;;;;;;4979524;28;20027;-67
2021/11/09 13:18:05;;;;;;;8.48;2.10;;;11.20;99.90;;;;;;4962915;28;20034;-67
2021/11/09 13:20:36;;;;;;;8.80;2.30;;;11.20;99.90;;;;;;4979584;28;20030;-67
2021/11/09 13:23:12;;;;;;;9.05;2.10;;;11.30;99.90;;;;;;4981223;28;20031;-66
2021/11/09 13:25:49;;;;;;;8.63;2.10;;;11.30;99.90;;;;;;4963402;28;20081;-67
2021/11/09 13:28:20;;;;;;;9.90;2.00;;;11.30;99.90;;;;;;4980491;28;20058;-67
2021/11/09 13:31:02;;;;;;;6.70;1.60;;;11.20;99.90;;;;;;4963210;28;20027;-66
2021/11/09 13:33:31;;;;;;;6.57;2.00;;;11.20;99.90;;;;;;4980338;28;20026;-66
2021/11/09 13:35:59;;;;;;;4.57;1.70;;;11.20;99.90;;;;;;4980673;28;20033;-66
2021/11/09 13:38:33;;;;;;;7.75;1.63;;;11.20;99.90;;;;;;4979921;28;20058;-66
2021/11/09 13:41:07;;;;;;;4.88;1.98;;;11.20;99.90;;;;;;4979107;28;20051;-66
2021/11/09 13:43:42;;;;;;;6.53;1.90;;;11.20;99.90;;;;;;4979944;28;20027;-66
2021/11/09 13:46:17;;;;;;;5.72;1.92;;;11.20;99.90;;;;;;4978805;28;20055;-66
2021/11/09 13:48:50;;;;;;;7.95;1.90;;;11.20;99.90;;;;;;4979353;28;20470;-66
2021/11/09 13:51:25;;;;;;;6.50;1.80;;;11.20;99.90;;;;;;4979533;28;20058;-66
2021/11/09 13:54:04;;;;;;;4.85;1.70;;;11.10;99.90;;;;;;4978909;28;20027;-66
2021/11/09 13:56:34;;;;;;;5.70;1.70;;;11.10;99.90;;;;;;4979103;28;20035;-66
2021/11/09 13:59:06;;;;;;;9.05;2.20;;;11.00;99.90;;;;;;4979383;28;20030;-68
2021/11/09 14:05:14;;;;;;;6.72;2.33;;;11.00;99.90;;;;;;4979735;28;20034;-68
2021/11/09 14:18:20;;;;;;;8.43;1.92;;;10.90;99.90;;;;;;4979370;28;20047;-66
2021/11/09 14:21:00;;;;;;;6.78;2.17;;;10.90;99.90;;;;;;4978645;28;20031;-67
2021/11/09 14:23:37;;;;;;;6.57;2.13;;;10.90;99.90;;;;;;4978964;28;20320;-67
2021/11/09 14:26:26;;;;;;;7.30;2.38;;;10.80;99.90;;;;;;4978361;28;20025;-67
2021/11/09 14:28:56;;;;;;;7.10;2.08;;;10.80;99.90;;;;;;4978464;28;20101;-67
2021/11/09 14:31:37;;;;;;;7.40;2.22;;;10.80;99.90;;;;;;4978083;28;20023;-67
2021/11/09 14:34:20;;;;;;;6.20;2.17;;;10.70;99.90;;;;;;4978422;28;20415;-67
2021/11/09 14:36:50;;;;;;;4.13;1.98;;;10.60;99.90;;;;;;4978294;28;20027;-67
2021/11/09 14:39:27;;;;;;;8.07;2.47;;;10.60;99.90;;;;;;4961360;28;20036;-67
2021/11/09 14:42:15;;;;;;;10.63;3.25;;;10.50;99.90;;;;;;4978753;28;20023;-67
2021/11/09 14:45:04;;;;;;;8.45;2.90;;;10.50;99.90;;;;;;4979339;28;20046;-67
2021/11/09 14:47:46;;;;;;;6.57;2.55;;;10.40;99.90;;;;;;4979275;28;20169;-66
2021/11/09 14:50:34;;;;;;;10.90;2.38;;;10.30;99.90;;;;;;4978884;28;20073;-67
2021/11/09 14:53:11;;;;;;;10.25;2.53;;;10.40;99.90;;;;;;4978914;28;20054;-67
2021/11/09 14:55:45;;;;;;;9.80;2.83;;;10.30;99.90;;;;;;4979420;28;20053;-66
2021/11/09 14:58:30;;;;;;;5.43;1.88;;;10.30;99.90;;;;;;4978677;28;20033;-67
2021/11/09 15:01:06;;;;;;;7.63;2.17;;;10.20;99.90;;;;;;4979358;28;20094;-67
2021/11/09 15:03:55;;;;;;;6.28;1.77;;;10.20;99.90;;;;;;4978190;28;20033;-67
2021/11/09 15:06:43;;;;;;;9.68;2.03;;;10.10;99.90;;;;;;4965393;28;20352;-68
2021/11/09 15:12:17;;;;;;;9.23;1.95;;;10.00;99.90;;;;;;4978366;28;20030;-67
2021/11/09 15:36:48;;;;;;;6.70;2.30;;;9.10;99.90;;;;;;4978475;28;20038;-67
2021/11/09 15:39:19;;;;;;;11.50;3.38;;;9.00;99.90;;;;;;4978744;28;20034;-67
2021/11/09 15:41:48;;;;;;;11.68;2.75;;;8.80;99.90;;;;;;4978805;28;20027;-67
2021/11/09 15:44:16;;;;;;;12.07;2.55;;;8.70;99.90;;;;;;4982534;28;20022;-67
2021/11/09 15:46:45;;;;;;;7.25;2.33;;;8.60;99.90;;;;;;4981459;28;20097;-67
2021/11/09 15:49:13;;;;;;;8.50;2.55;;;8.50;99.90;;;;;;4981359;28;20115;-67